Time;durP1;ratioP1;P1;durP2;ratioP2;P2;SDS_P1;SDS_P2;PMS_P1;PMS_P2;Temp;Humidity;BMP_temperature;BMP_pressure;BME280_temperature;BME280_humidity;BME280_pressure;Samples;Min_cycle;Max_cycle;Signal;HPM_P1;HPM_P2
2022/10/11 00:00:32;;;;;;;21.13;4.20;;;;;;;10.60;78.02;99463.66;5021388;28;20119;-80
2022/10/11 00:02:58;;;;;;;14.02;3.83;;;;;;;10.60;77.87;99469.81;5041289;28;20033;-80
2022/10/11 00:05:24;;;;;;;16.00;3.80;;;;;;;10.64;77.67;99475.50;5043593;28;20029;-80
2022/10/11 00:07:49;;;;;;;14.50;3.80;;;;;;;10.58;78.12;99471.91;5028421;28;20039;-79
2022/10/11 00:10:15;;;;;;;12.63;3.60;;;;;;;10.66;77.50;99484.09;5011179;28;20071;-79
2022/10/11 00:12:41;;;;;;;14.85;4.38;;;;;;;10.67;76.96;99486.53;5024844;28;21153;-79
2022/10/11 00:15:07;;;;;;;13.77;4.55;;;;;;;10.63;76.98;99488.03;5032062;28;20040;-80
2022/10/11 00:17:34;;;;;;;14.25;3.45;;;;;;;10.38;77.25;99456.22;5022299;28;20044;-80
2022/10/11 00:19:59;;;;;;;18.73;4.10;;;;;;;10.48;76.98;99488.47;5046259;28;20047;-79
2022/10/11 00:22:24;;;;;;;17.45;3.58;;;;;;;10.48;77.40;99490.34;5027461;28;21727;-79
2022/10/11 00:24:51;;;;;;;23.70;4.63;;;;;;;10.40;77.12;99486.16;5025748;28;20139;-79
2022/10/11 00:27:17;;;;;;;20.38;4.70;;;;;;;10.46;77.13;99500.47;5029587;28;20485;-80
2022/10/11 00:29:43;;;;;;;16.25;4.03;;;;;;;10.37;77.00;99497.31;5025445;28;20058;-80
2022/10/11 00:32:08;;;;;;;14.45;3.55;;;;;;;10.21;76.82;99484.66;5042302;28;20144;-80
2022/10/11 00:34:33;;;;;;;23.10;4.93;;;;;;;10.25;77.72;99507.16;5010784;28;20133;-80
2022/10/11 00:36:59;;;;;;;16.88;4.97;;;;;;;10.32;76.50;99512.38;5025396;28;20040;-80
2022/10/11 00:39:24;;;;;;;17.65;4.05;;;;;;;10.24;76.78;99502.84;5011050;28;20033;-80
2022/10/11 00:41:50;;;;;;;16.30;4.75;;;;;;;10.20;76.69;99499.00;5044555;28;20108;-80
2022/10/11 00:44:21;;;;;;;16.90;4.25;;;;;;;10.25;77.55;99517.81;5039260;28;20063;-80
2022/10/11 00:47:00;;;;;;;23.52;4.40;;;;;;;10.21;77.00;99505.16;5041992;28;20166;-80
2022/10/11 00:49:34;;;;;;;23.23;4.97;;;;;;;10.18;77.17;99505.63;5009572;28;20031;-80
2022/10/11 00:52:15;;;;;;;16.02;3.97;;;;;;;10.00;77.37;99497.69;5023372;28;20060;-80
2022/10/11 00:54:44;;;;;;;12.30;3.65;;;;;;;10.01;77.46;99504.63;5039591;28;20024;-80
2022/10/11 00:57:15;;;;;;;12.05;3.53;;;;;;;9.83;77.54;99502.84;5024349;28;20021;-80
2022/10/11 00:59:46;;;;;;;12.23;3.45;;;;;;;10.04;77.25;99518.34;5025597;28;20025;-80
2022/10/11 01:02:13;;;;;;;15.88;4.20;;;;;;;9.95;77.55;99508.22;5024302;28;20029;-80
2022/10/11 01:04:40;;;;;;;17.58;3.47;;;;;;;9.92;77.70;99519.31;5043895;28;20029;-80
2022/10/11 01:07:05;;;;;;;12.85;3.20;;;;;;;9.97;77.79;99525.63;5010453;28;20122;-80
2022/10/11 01:09:31;;;;;;;18.38;3.92;;;;;;;9.76;77.85;99491.47;5021164;28;21192;-81
2022/10/11 01:12:00;;;;;;;11.30;3.63;;;;;;;10.01;77.99;99529.44;5047495;28;20070;-80
2022/10/11 01:15:07;;;;;;;16.08;3.42;;;;;;;10.01;78.01;99528.63;5025547;28;20032;-80
2022/10/11 01:17:53;;;;;;;;;;;;;;;9.98;77.83;99529.91;4993309;28;20052;-80
2022/10/11 01:20:25;;;;;;;10.02;4.00;;;;;;;10.00;78.05;99527.84;5053538;28;20003;-80
2022/10/11 01:22:59;;;;;;;14.32;3.95;;;;;;;9.87;78.86;99525.38;5044505;28;20112;-80
2022/10/11 01:25:47;;;;;;;12.25;3.42;;;;;;;9.89;79.03;99525.94;5055900;28;20103;-80
2022/10/11 01:28:31;;;;;;;9.90;3.25;;;;;;;9.92;78.42;99522.81;5006149;28;20480;-80
2022/10/11 01:31:07;;;;;;;23.75;6.05;;;;;;;9.89;78.43;99527.78;5048634;28;20076;-80
2022/10/11 01:34:18;;;;;;;27.00;5.05;;;;;;;9.77;79.23;99533.09;5047877;28;20021;-79
2022/10/11 01:36:52;;;;;;;21.90;4.28;;;;;;;9.90;78.65;99532.06;5011677;28;20056;-80
2022/10/11 01:39:20;;;;;;;16.10;4.38;;;;;;;9.83;78.18;99522.31;5052712;28;20028;-80
2022/10/11 01:41:49;;;;;;;11.25;3.45;;;;;;;9.74;78.56;99514.88;5032700;28;20028;-80
2022/10/11 01:44:15;;;;;;;20.70;4.55;;;;;;;9.88;78.50;99531.50;5048026;28;20542;-80
2022/10/11 01:46:41;;;;;;;14.15;4.15;;;;;;;9.73;78.63;99510.59;5035811;28;20115;-80
2022/10/11 01:49:07;;;;;;;16.98;4.32;;;;;;;9.66;78.26;99501.84;5012446;28;20044;-80
2022/10/11 01:51:36;;;;;;;16.40;4.03;;;;;;;9.76;78.02;99534.94;5028054;28;20028;-80
2022/10/11 01:54:24;;;;;;;12.55;3.67;;;;;;;9.53;79.09;99524.19;5026392;28;20175;-80
2022/10/11 01:57:34;;;;;;;14.48;3.97;;;;;;;9.44;79.23;99503.38;5045205;28;20032;-80
2022/10/11 02:00:02;;;;;;;19.73;4.38;;;;;;;9.63;79.09;99526.31;5025535;28;20499;-80
2022/10/11 02:02:40;;;;;;;16.25;4.70;;;;;;;9.58;79.26;99523.50;5029815;28;20032;-80
2022/10/11 02:05:16;;;;;;;11.98;4.15;;;;;;;9.49;78.80;99509.69;5042114;28;20107;-80
2022/10/11 02:07:48;;;;;;;13.30;4.20;;;;;;;9.33;79.63;99528.13;5046854;28;20065;-80
2022/10/11 02:10:25;;;;;;;16.85;4.78;;;;;;;9.40;79.56;99521.69;5030425;28;20037;-80
2022/10/11 02:13:08;;;;;;;18.75;4.68;;;;;;;9.26;80.11;99516.75;5027912;28;20036;-80
2022/10/11 02:15:38;;;;;;;21.45;5.85;;;;;;;9.24;79.41;99500.19;5051385;28;20032;-80
2022/10/11 02:18:08;;;;;;;12.27;4.05;;;;;;;9.15;79.98;99513.00;5031317;28;20668;-80
2022/10/11 02:20:37;;;;;;;22.15;4.80;;;;;;;9.52;79.78;99532.41;5017160;28;20025;-80
2022/10/11 02:23:12;;;;;;;16.75;4.80;;;;;;;9.44;78.89;99517.53;5046424;28;20033;-81
2022/10/11 02:25:38;;;;;;;20.20;5.63;;;;;;;9.34;79.70;99541.22;5050906;28;20024;-81
2022/10/11 02:28:10;;;;;;;11.02;4.55;;;;;;;9.45;79.38;99535.16;5044490;28;20483;-80
2022/10/11 02:30:36;;;;;;;14.55;4.68;;;;;;;9.50;79.24;99532.59;5046602;28;20059;-80
2022/10/11 02:33:07;;;;;;;14.65;3.72;;;;;;;9.20;79.44;99514.94;5008279;28;20090;-80
2022/10/11 02:35:37;;;;;;;17.50;4.07;;;;;;;9.04;80.87;99527.84;5048073;28;20100;-80
2022/10/11 02:38:23;;;;;;;24.38;5.35;;;;;;;8.74;81.95;99558.03;5009235;28;20029;-80
2022/10/11 02:41:09;;;;;;;18.48;5.35;;;;;;;8.28;82.22;99542.47;5046544;28;20029;-80
2022/10/11 02:43:44;;;;;;;12.38;4.53;;;;;;;8.41;82.93;99558.31;5044545;28;20100;-80
2022/10/11 02:46:11;;;;;;;21.15;4.40;;;;;;;7.52;86.90;99557.63;5028087;28;20017;-80
2022/10/11 02:48:36;;;;;;;22.23;5.88;;;;;;;7.54;87.34;99547.59;5042517;28;21610;-80
2022/10/11 02:51:02;;;;;;;20.80;5.47;;;;;;;7.58;84.50;99568.22;5024848;28;20115;-80
2022/10/11 02:53:28;;;;;;;15.88;4.70;;;;;;;8.45;83.21;99548.91;5021749;28;20052;-80
2022/10/11 02:55:54;;;;;;;17.45;5.82;;;;;;;9.07;80.82;99575.34;5048061;28;20421;-80
2022/10/11 02:58:21;;;;;;;17.52;5.10;;;;;;;9.20;79.03;99577.03;5049039;28;20033;-80
2022/10/11 03:00:47;;;;;;;15.27;4.80;;;;;;;9.23;78.89;99563.28;5010023;28;20032;-80
2022/10/11 03:03:12;;;;;;;21.15;4.50;;;;;;;9.18;78.58;99564.97;5026326;28;20032;-80
2022/10/11 03:05:40;;;;;;;11.73;4.35;;;;;;;9.09;78.63;99555.66;5029579;28;20033;-80
2022/10/11 03:08:07;;;;;;;14.95;5.95;;;;;;;8.95;78.38;99584.28;5048806;28;20078;-81
2022/10/11 03:10:33;;;;;;;10.43;4.32;;;;;;;9.09;79.50;99580.44;5026681;28;20024;-80
2022/10/11 03:12:59;;;;;;;16.20;4.85;;;;;;;9.09;78.12;99582.31;5027631;28;20048;-80
2022/10/11 03:15:24;;;;;;;9.77;4.53;;;;;;;8.72;79.77;99584.06;5033170;28;20036;-80
2022/10/11 03:17:50;;;;;;;13.23;4.75;;;;;;;8.45;79.29;99562.22;5046053;28;20048;-80
2022/10/11 03:20:15;;;;;;;22.05;4.60;;;;;;;8.79;79.60;99587.47;5031731;28;20463;-80
2022/10/11 03:22:40;;;;;;;16.45;4.93;;;;;;;9.04;78.40;99585.63;5008684;28;20029;-80
2022/10/11 03:25:06;;;;;;;13.07;4.40;;;;;;;9.08;78.16;99600.13;5027417;28;20706;-80
2022/10/11 03:27:32;;;;;;;13.93;4.43;;;;;;;8.82;77.36;99603.03;5046131;28;20045;-80
2022/10/11 03:29:58;;;;;;;11.93;4.13;;;;;;;8.73;78.58;99605.16;5030466;28;20033;-80
2022/10/11 03:32:23;;;;;;;16.95;4.30;;;;;;;8.70;78.13;99575.47;5044742;28;20118;-80
2022/10/11 03:34:48;;;;;;;11.88;4.03;;;;;;;9.04;76.74;99612.25;5046658;28;20044;-80
2022/10/11 03:37:14;;;;;;;9.70;4.78;;;;;;;9.07;77.34;99612.59;5020860;28;20824;-79
2022/10/11 03:39:39;;;;;;;13.27;4.95;;;;;;;9.00;77.22;99614.53;5028573;28;20536;-80
2022/10/11 03:42:05;;;;;;;13.23;3.72;;;;;;;9.06;76.68;99605.66;5040592;28;20026;-80
2022/10/11 03:44:30;;;;;;;11.65;4.70;;;;;;;8.95;76.85;99609.03;5045261;28;20025;-80
2022/10/11 03:46:56;;;;;;;16.50;4.72;;;;;;;9.04;76.92;99620.25;5027050;28;20029;-80
2022/10/11 03:49:22;;;;;;;15.05;4.97;;;;;;;8.92;77.05;99609.47;5007294;28;20033;-80
2022/10/11 03:51:47;;;;;;;11.90;4.13;;;;;;;8.82;76.17;99598.50;5012992;28;20037;-80
2022/10/11 03:54:12;;;;;;;15.45;4.75;;;;;;;8.78;76.96;99610.63;5014717;28;20654;-80
2022/10/11 03:56:38;;;;;;;16.20;5.50;;;;;;;8.86;76.90;99621.00;5050236;28;20358;-80
2022/10/11 03:59:03;;;;;;;10.80;5.35;;;;;;;8.74;77.06;99617.41;5008122;28;20029;-80
2022/10/11 04:01:29;;;;;;;19.25;4.22;;;;;;;8.82;76.67;99619.78;5009748;28;20048;-80
2022/10/11 04:03:56;;;;;;;17.05;5.25;;;;;;;8.86;76.47;99622.84;4989066;28;20032;-80
2022/10/11 04:06:22;;;;;;;16.42;5.13;;;;;;;8.80;77.06;99637.81;5024106;28;20084;-80
2022/10/11 04:08:47;;;;;;;14.70;5.40;;;;;;;8.68;76.92;99612.97;5042949;28;20056;-80
2022/10/11 04:11:12;;;;;;;15.05;4.82;;;;;;;8.71;77.11;99638.34;5027815;28;20024;-81
2022/10/11 04:13:38;;;;;;;23.27;6.18;;;;;;;8.64;76.44;99635.72;5010443;28;20040;-81
2022/10/11 04:16:04;;;;;;;20.30;5.07;;;;;;;8.56;76.96;99635.19;5016603;28;20074;-80
2022/10/11 04:18:29;;;;;;;17.30;5.97;;;;;;;8.24;78.31;99637.81;5016927;28;20758;-80
2022/10/11 04:20:54;;;;;;;11.32;5.32;;;;;;;8.30;78.23;99642.28;5023525;28;20044;-80
2022/10/11 04:23:20;;;;;;;11.02;5.13;;;;;;;8.18;79.15;99627.22;5040599;28;20128;-81
2022/10/11 04:25:47;;;;;;;16.40;6.05;;;;;;;7.94;78.62;99631.44;5029321;28;20036;-82
2022/10/11 04:28:12;;;;;;;20.17;7.47;;;;;;;8.21;79.09;99651.50;5006686;28;20404;-80
2022/10/11 04:30:38;;;;;;;18.15;7.38;;;;;;;7.67;79.55;99640.53;5043801;28;20082;-79
2022/10/11 04:33:03;;;;;;;19.80;7.28;;;;;;;7.57;82.10;99646.31;5043160;28;20108;-79
2022/10/11 04:35:29;;;;;;;13.73;5.38;;;;;;;8.14;81.00;99649.94;5027888;28;20051;-79
2022/10/11 04:37:54;;;;;;;20.77;6.07;;;;;;;7.74;82.16;99657.28;5045150;28;20064;-79
2022/10/11 04:40:20;;;;;;;21.83;8.70;;;;;;;7.73;82.24;99654.84;5025974;28;20036;-80
2022/10/11 04:42:45;;;;;;;18.85;6.53;;;;;;;7.23;83.98;99654.53;5020373;28;20029;-79
2022/10/11 04:45:11;;;;;;;22.30;7.93;;;;;;;6.61;85.44;99641.75;5025820;28;20033;-79
2022/10/11 04:47:39;;;;;;;19.27;6.95;;;;;;;6.85;86.95;99647.44;5008111;28;20087;-79
2022/10/11 04:50:05;;;;;;;26.02;10.82;;;;;;;6.09;88.26;99662.88;5007636;28;20082;-81
2022/10/11 04:52:30;;;;;;;25.08;9.60;;;;;;;5.71;91.22;99636.00;5042945;28;20033;-81
2022/10/11 04:54:55;;;;;;;31.75;9.95;;;;;;;6.27;87.14;99635.78;5037284;28;20037;-81
2022/10/11 04:57:21;;;;;;;27.35;10.00;;;;;;;6.53;88.61;99655.19;5009053;28;20028;-81
2022/10/11 04:59:46;;;;;;;17.45;8.10;;;;;;;7.49;83.67;99654.47;5012636;28;20049;-81
2022/10/11 05:02:11;;;;;;;24.98;10.30;;;;;;;6.75;84.70;99638.06;5026453;28;20043;-81
2022/10/11 05:04:37;;;;;;;24.73;7.10;;;;;;;8.15;79.90;99644.41;5024075;28;20036;-81
2022/10/11 05:07:02;;;;;;;26.38;13.52;;;;;;;7.46;81.91;99681.47;5009664;28;20051;-81
2022/10/11 05:09:27;;;;;;;22.67;7.15;;;;;;;7.97;80.27;99652.25;5048656;28;20024;-81
2022/10/11 05:11:53;;;;;;;15.50;7.80;;;;;;;8.36;79.11;99666.41;5010575;28;20564;-81
2022/10/11 05:14:18;;;;;;;25.33;10.18;;;;;;;7.51;81.58;99683.50;5044310;28;20061;-81
2022/10/11 05:16:43;;;;;;;38.47;22.33;;;;;;;7.45;81.89;99684.31;5028391;28;20024;-81
2022/10/11 05:19:09;;;;;;;16.67;9.02;;;;;;;7.05;84.55;99691.53;5035132;28;20412;-81
2022/10/11 05:21:34;;;;;;;16.75;8.23;;;;;;;7.62;82.58;99679.41;5011715;28;20029;-82
2022/10/11 05:24:00;;;;;;;28.23;12.45;;;;;;;7.83;80.58;99697.72;5029146;28;20108;-82
2022/10/11 05:26:26;;;;;;;26.98;10.15;;;;;;;7.92;80.27;99676.03;5037995;28;20067;-81
2022/10/11 05:28:52;;;;;;;22.98;8.95;;;;;;;6.43;86.89;99699.03;5031188;28;20475;-81
2022/10/11 05:31:18;;;;;;;13.18;7.00;;;;;;;7.21;85.77;99677.84;5028641;28;20037;-81
2022/10/11 05:33:44;;;;;;;16.20;6.75;;;;;;;8.05;80.91;99678.63;5043971;28;20043;-82
2022/10/11 05:36:09;;;;;;;13.10;7.68;;;;;;;7.70;81.22;99687.13;5027446;28;20040;-81
2022/10/11 05:38:36;;;;;;;23.35;8.93;;;;;;;7.79;81.31;99681.38;5027864;28;20119;-81
2022/10/11 05:41:02;;;;;;;18.92;6.90;;;;;;;8.52;78.66;99701.28;5028746;28;20380;-81
2022/10/11 05:43:29;;;;;;;15.75;7.60;;;;;;;8.67;77.35;99696.47;5031504;28;20022;-81
2022/10/11 05:45:54;;;;;;;12.38;7.35;;;;;;;8.59;77.59;99694.09;5013346;28;20036;-81
2022/10/11 05:48:20;;;;;;;15.95;7.28;;;;;;;7.19;83.72;99687.84;5026563;28;20045;-81
2022/10/11 05:50:45;;;;;;;12.65;6.53;;;;;;;8.46;78.71;99704.81;4998271;28;20025;-81
2022/10/11 05:53:10;;;;;;;17.02;7.03;;;;;;;8.14;80.33;99716.41;5029340;28;20029;-81
2022/10/11 05:55:37;;;;;;;26.88;8.25;;;;;;;7.17;85.01;99713.78;5013468;28;20442;-80
2022/10/11 05:58:03;;;;;;;14.60;6.90;;;;;;;7.39;85.32;99701.91;5039933;28;20024;-80
2022/10/11 06:00:29;;;;;;;17.25;7.57;;;;;;;8.27;80.29;99709.22;5054990;28;20059;-81
2022/10/11 06:02:54;;;;;;;31.33;9.23;;;;;;;8.37;80.81;99732.69;5048862;28;20059;-81
2022/10/11 06:05:20;;;;;;;13.77;6.35;;;;;;;8.59;79.40;99714.56;5031974;28;20037;-81
2022/10/11 06:07:45;;;;;;;19.63;6.43;;;;;;;8.75;78.66;99733.50;5022901;28;20051;-80
2022/10/11 06:10:10;;;;;;;12.82;5.15;;;;;;;9.06;77.78;99741.44;5035335;28;20025;-81
2022/10/11 06:12:36;;;;;;;15.65;6.55;;;;;;;8.95;77.39;99715.53;5043123;28;20042;-80
2022/10/11 06:15:03;;;;;;;13.45;6.55;;;;;;;9.02;77.24;99731.47;5061582;28;20115;-81
2022/10/11 06:17:28;;;;;;;10.05;5.55;;;;;;;9.07;77.19;99735.09;5044295;28;20021;-80
2022/10/11 06:19:54;;;;;;;21.55;8.05;;;;;;;8.87;77.77;99750.41;5045752;28;20499;-80
2022/10/11 06:22:19;;;;;;;20.17;8.25;;;;;;;7.69;82.41;99760.69;5040351;28;20124;-80
2022/10/11 06:24:44;;;;;;;28.75;8.15;;;;;;;6.98;86.12;99757.06;5008986;28;20111;-81
2022/10/11 06:27:11;;;;;;;22.50;8.35;;;;;;;7.07;85.46;99749.72;5018686;28;20048;-80
2022/10/11 06:29:36;;;;;;;20.60;8.68;;;;;;;8.05;82.12;99755.72;5034664;28;20037;-80
2022/10/11 06:32:02;;;;;;;11.73;6.53;;;;;;;8.65;79.59;99766.94;5039970;28;20123;-80
2022/10/11 06:34:27;;;;;;;24.02;9.65;;;;;;;8.33;80.59;99779.34;5022800;28;20053;-81
2022/10/11 06:36:53;;;;;;;12.40;6.45;;;;;;;8.70;79.15;99759.94;5048277;28;20064;-80
2022/10/11 06:39:18;;;;;;;15.70;6.45;;;;;;;8.88;78.86;99772.53;5046461;28;20083;-81
2022/10/11 06:41:44;;;;;;;13.18;6.43;;;;;;;8.95;78.71;99775.97;5050684;28;20028;-81
2022/10/11 06:44:11;;;;;;;17.02;5.78;;;;;;;8.96;78.86;99777.59;5012377;28;20043;-80
2022/10/11 06:46:36;;;;;;;17.50;7.25;;;;;;;9.31;78.07;99785.94;5012568;28;20052;-80
2022/10/11 06:49:02;;;;;;;10.60;5.07;;;;;;;9.33;78.07;99787.34;5013978;28;20072;-81
2022/10/11 06:51:29;;;;;;;13.43;6.53;;;;;;;8.83;81.63;99785.66;5055410;28;20059;-80
2022/10/11 06:53:56;;;;;;;15.50;6.07;;;;;;;9.17;80.31;99789.75;5052376;28;20397;-80
2022/10/11 06:56:24;;;;;;;9.00;5.38;;;;;;;9.38;79.18;99789.38;5035553;28;20028;-81
2022/10/11 06:58:52;;;;;;;23.33;9.10;;;;;;;9.09;81.01;99782.03;5041481;28;20115;-81
2022/10/11 07:01:20;;;;;;;11.40;4.90;;;;;;;9.46;79.05;99803.22;5031722;28;20500;-80
2022/10/11 07:03:46;;;;;;;25.67;9.35;;;;;;;9.37;79.69;99804.53;5034501;28;20033;-81
2022/10/11 07:06:15;;;;;;;11.48;6.22;;;;;;;8.70;83.28;99810.50;5043371;28;20029;-80
2022/10/11 07:08:41;;;;;;;13.73;6.40;;;;;;;9.00;81.97;99810.72;5035263;28;20048;-81
2022/10/11 07:11:27;;;;;;;21.60;7.70;;;;;;;9.40;78.87;99819.25;5042535;28;20185;-81
2022/10/11 07:13:55;;;;;;;16.02;6.53;;;;;;;9.57;78.43;99815.84;5047599;28;20086;-80
2022/10/11 07:16:22;;;;;;;14.18;6.82;;;;;;;9.56;78.45;99813.41;5033620;28;20112;-81
2022/10/11 07:18:55;;;;;;;35.47;12.48;;;;;;;8.84;83.94;99837.88;5037975;28;20765;-80
2022/10/11 07:21:20;;;;;;;39.92;15.95;;;;;;;8.41;86.88;99826.19;5056096;28;20029;-80
2022/10/11 07:23:46;;;;;;;15.35;7.10;;;;;;;8.91;83.51;99844.00;5018721;28;20119;-80
2022/10/11 07:26:12;;;;;;;13.25;6.10;;;;;;;9.09;82.09;99821.97;5034841;28;20043;-80
2022/10/11 07:28:38;;;;;;;14.10;6.28;;;;;;;9.49;80.38;99823.28;5036881;28;20399;-80
2022/10/11 07:31:10;;;;;;;18.15;8.25;;;;;;;9.06;80.75;99773.41;5030372;28;20025;-80
2022/10/11 07:33:35;;;;;;;15.02;8.40;;;;;;;9.41;80.60;99816.41;5024563;28;20082;-80
2022/10/11 07:36:01;;;;;;;19.25;8.80;;;;;;;9.61;80.28;99841.03;5035703;28;20025;-80
2022/10/11 07:38:27;;;;;;;16.35;6.47;;;;;;;9.71;79.29;99840.53;5019650;28;20108;-81
2022/10/11 07:40:52;;;;;;;23.42;7.38;;;;;;;9.75;79.17;99839.06;5044304;28;20056;-80
2022/10/11 07:43:18;;;;;;;12.18;6.22;;;;;;;10.02;78.55;99842.31;5047240;28;20068;-80
2022/10/11 07:45:44;;;;;;;16.77;6.85;;;;;;;10.05;77.99;99856.00;5000879;28;20086;-80
2022/10/11 07:48:10;;;;;;;17.35;7.38;;;;;;;9.88;79.34;99854.94;5048980;28;20037;-80
2022/10/11 07:50:36;;;;;;;33.63;9.45;;;;;;;9.56;83.21;99856.88;5030528;28;20025;-80
2022/10/11 07:53:02;;;;;;;27.38;7.82;;;;;;;9.62;80.46;99871.16;5050241;28;20032;-80
2022/10/11 07:55:29;;;;;;;23.50;6.70;;;;;;;10.10;78.63;99852.69;5050106;28;20037;-80
2022/10/11 07:57:55;;;;;;;12.98;6.53;;;;;;;10.15;78.34;99872.38;5041870;28;20036;-80
2022/10/11 08:00:21;;;;;;;22.88;8.73;;;;;;;9.47;84.00;99863.50;5031278;28;20415;-80
2022/10/11 08:02:46;;;;;;;32.88;17.88;;;;;;;9.61;82.91;99862.34;5032993;28;20040;-80
2022/10/11 08:05:12;;;;;;;45.47;19.00;;;;;;;9.61;83.59;99870.34;5029214;28;20144;-81
2022/10/11 08:07:38;;;;;;;16.48;5.82;;;;;;;9.94;80.13;99864.72;5053517;28;20032;-81
2022/10/11 08:10:04;;;;;;;18.73;6.55;;;;;;;10.03;79.40;99858.09;5045974;28;20038;-80
2022/10/11 08:12:30;;;;;;;19.75;11.32;;;;;;;10.16;78.44;99862.50;5049204;28;20033;-80
2022/10/11 08:14:55;;;;;;;14.25;5.28;;;;;;;10.37;78.91;99873.59;5030179;28;20151;-80
2022/10/11 08:17:20;;;;;;;24.33;8.85;;;;;;;10.30;78.80;99875.50;5026416;28;20056;-80
2022/10/11 08:19:46;;;;;;;8.73;5.70;;;;;;;10.44;77.99;99873.50;5014346;28;20029;-80
2022/10/11 08:22:11;;;;;;;15.75;6.28;;;;;;;10.50;77.99;99885.97;5028267;28;20032;-81
2022/10/11 08:24:36;;;;;;;21.67;8.18;;;;;;;10.57;77.99;99883.22;5031928;28;20059;-80
2022/10/11 08:27:02;;;;;;;13.40;5.35;;;;;;;10.65;76.97;99878.38;5043605;28;22119;-80
2022/10/11 08:29:27;;;;;;;21.17;5.55;;;;;;;10.60;76.80;99869.41;5048591;28;20393;-80
2022/10/11 08:31:53;;;;;;;24.10;9.32;;;;;;;10.51;79.29;99859.03;5038754;28;21708;-80
2022/10/11 08:34:18;;;;;;;11.43;5.55;;;;;;;10.68;77.55;99869.13;5047812;28;20954;-81
2022/10/11 08:36:43;;;;;;;28.27;8.80;;;;;;;10.38;80.03;99883.22;5024599;28;20882;-80
2022/10/11 08:39:09;;;;;;;13.55;6.28;;;;;;;10.50;78.01;99869.94;5022868;28;20064;-81
2022/10/11 08:41:45;;;;;;;20.45;7.45;;;;;;;10.63;78.45;99887.66;5029558;28;20036;-81
2022/10/11 08:44:19;;;;;;;27.38;8.93;;;;;;;10.54;79.80;99876.47;5048200;28;20103;-80
2022/10/11 08:46:49;;;;;;;16.40;6.80;;;;;;;10.59;79.74;99873.94;5028470;28;20574;-80
2022/10/11 08:49:18;;;;;;;16.98;7.60;;;;;;;10.57;77.79;99842.13;5014920;28;20049;-81
2022/10/11 08:51:45;;;;;;;18.02;6.18;;;;;;;10.66;77.84;99879.22;5016445;28;20029;-80
2022/10/11 08:54:27;;;;;;;16.50;7.20;;;;;;;10.47;79.96;99881.88;5033568;28;20025;-81
2022/10/11 08:56:53;;;;;;;18.90;7.80;;;;;;;10.01;80.87;99856.66;5052887;28;21722;-80
2022/10/11 08:59:25;;;;;;;14.55;6.22;;;;;;;10.60;78.18;99875.56;5044179;28;20027;-80
2022/10/11 09:02:03;;;;;;;16.27;5.95;;;;;;;10.86;77.15;99869.06;5043666;28;20453;-80
2022/10/11 09:04:31;;;;;;;19.23;5.72;;;;;;;10.66;78.17;99882.69;5029816;28;20041;-80
2022/10/11 09:07:06;;;;;;;11.38;6.05;;;;;;;11.02;76.04;99876.47;5044692;28;20114;-81
2022/10/11 09:09:54;;;;;;;10.25;4.82;;;;;;;10.69;78.12;99874.22;5049313;28;20370;-80
2022/10/11 09:12:40;;;;;;;16.35;4.85;;;;;;;10.21;79.08;99868.00;5031136;28;20036;-81
2022/10/11 09:15:27;;;;;;;13.30;4.97;;;;;;;10.27;79.31;99865.25;5020342;28;20040;-81
2022/10/11 09:18:16;;;;;;;12.82;5.35;;;;;;;10.29;78.93;99865.03;5026389;28;20033;-81
2022/10/11 09:21:13;;;;;;;23.33;5.63;;;;;;;10.51;79.29;99883.06;5051226;28;20024;-80
2022/10/11 09:24:00;;;;;;;18.02;5.28;;;;;;;10.50;79.63;99880.63;5032122;28;20571;-81
2022/10/11 09:26:50;;;;;;;14.23;5.22;;;;;;;10.52;78.85;99886.56;5034062;28;20440;-80
2022/10/11 09:29:39;;;;;;;16.20;4.70;;;;;;;10.94;76.91;99858.09;5029459;28;20108;-81
2022/10/11 09:32:13;;;;;;;19.08;6.32;;;;;;;10.31;79.46;99870.97;5030867;28;20028;-80
2022/10/11 09:34:38;;;;;;;18.88;5.30;;;;;;;10.42;81.36;99889.72;5047908;28;20668;-80
2022/10/11 09:37:31;;;;;;;19.15;5.82;;;;;;;10.72;78.42;99879.13;5034048;28;20032;-81
2022/10/11 09:40:32;;;;;;;21.25;5.50;;;;;;;10.97;78.05;99890.50;5046197;28;20064;-80
2022/10/11 09:42:58;;;;;;;24.42;6.90;;;;;;;10.94;78.62;99877.59;5047966;28;20032;-80
2022/10/11 09:45:24;;;;;;;20.52;5.10;;;;;;;11.13;76.94;99868.53;5022135;28;20032;-80
2022/10/11 09:47:53;;;;;;;13.40;5.38;;;;;;;11.12;76.71;99850.84;5015029;28;20044;-80
2022/10/11 09:50:21;;;;;;;19.77;6.03;;;;;;;11.37;77.54;99877.44;5046934;28;20067;-81
2022/10/11 09:52:48;;;;;;;19.15;6.20;;;;;;;11.45;76.37;99869.06;5048194;28;20120;-80
2022/10/11 09:55:57;;;;;;;17.05;4.88;;;;;;;11.55;76.40;99890.72;5034689;28;20686;-80
2022/10/11 09:58:28;;;;;;;17.27;5.43;;;;;;;11.55;76.02;99877.38;5020023;28;20033;-80
2022/10/11 10:01:01;;;;;;;12.30;4.85;;;;;;;11.71;75.56;99882.06;5050451;28;20108;-80
2022/10/11 10:03:37;;;;;;;13.90;3.80;;;;;;;11.75;75.22;99872.53;5034886;28;20025;-80
2022/10/11 10:06:24;;;;;;;12.88;5.47;;;;;;;11.85;75.10;99886.16;5034289;28;20051;-81
2022/10/11 10:08:50;;;;;;;13.32;4.03;;;;;;;11.98;74.67;99872.56;5035562;28;20040;-81
2022/10/11 10:11:17;;;;;;;22.52;5.20;;;;;;;11.94;75.91;99879.44;5037936;28;20385;-81
2022/10/11 10:13:54;;;;;;;18.95;5.78;;;;;;;11.73;76.39;99869.28;5048733;28;20512;-81
2022/10/11 10:16:29;;;;;;;17.83;5.40;;;;;;;11.83;76.06;99871.38;5037218;28;20499;-80
2022/10/11 10:18:59;;;;;;;14.48;4.75;;;;;;;12.04;74.62;99878.84;5030472;28;20127;-80
2022/10/11 10:21:29;;;;;;;14.77;4.70;;;;;;;11.65;75.54;99864.22;5037411;28;20041;-80
2022/10/11 10:23:56;;;;;;;17.45;4.93;;;;;;;11.47;75.04;99866.16;5023029;28;20032;-80
2022/10/11 10:26:25;;;;;;;7.95;3.40;;;;;;;11.28;74.19;99866.25;5020149;28;20098;-80
2022/10/11 10:28:58;;;;;;;17.58;4.45;;;;;;;11.28;74.62;99878.78;5065347;28;20024;-80
2022/10/11 10:31:35;;;;;;;13.75;4.35;;;;;;;11.99;76.18;99878.72;5053138;28;20052;-80
2022/10/11 10:34:05;;;;;;;12.55;4.28;;;;;;;11.55;75.06;99876.53;5064638;28;20023;-80
2022/10/11 10:36:38;;;;;;;23.27;4.82;;;;;;;11.71;74.75;99849.97;5034887;28;21379;-80
2022/10/11 10:39:19;;;;;;;16.20;3.95;;;;;;;12.33;74.36;99885.94;5057309;28;20029;-80
2022/10/11 10:41:44;;;;;;;18.00;5.03;;;;;;;12.11;73.00;99846.59;5050638;28;21922;-81
2022/10/11 10:44:10;;;;;;;11.98;4.10;;;;;;;12.26;73.45;99866.50;5056431;28;20021;-81
2022/10/11 10:46:50;;;;;;;20.92;3.80;;;;;;;12.42;73.64;99884.53;5008398;28;20070;-81
2022/10/11 10:49:37;;;;;;;11.85;3.92;;;;;;;12.38;72.98;99877.19;5024160;28;20055;-80
2022/10/11 10:52:24;;;;;;;19.92;5.60;;;;;;;12.12;72.93;99875.81;5030053;28;20029;-80
2022/10/11 10:55:15;;;;;;;18.00;5.15;;;;;;;11.81;73.51;99879.66;5045540;28;20409;-80
2022/10/11 10:58:09;;;;;;;17.40;3.70;;;;;;;12.27;73.64;99878.03;5034798;28;20357;-81
2022/10/11 11:00:43;;;;;;;23.75;4.88;;;;;;;12.01;73.88;99864.06;5045598;28;20185;-80
2022/10/11 11:03:18;;;;;;;21.75;5.53;;;;;;;11.82;73.10;99856.38;5053238;28;20472;-80
2022/10/11 11:06:02;;;;;;;24.52;5.72;;;;;;;12.06;73.88;99876.72;5046436;28;20369;-80
2022/10/11 11:08:46;;;;;;;16.50;6.68;;;;;;;11.86;73.64;99881.63;5030236;28;20083;-80
2022/10/11 11:11:45;;;;;;;12.13;4.13;;;;;;;11.98;74.81;99877.09;5031044;28;20051;-80
2022/10/11 11:14:20;;;;;;;8.20;3.67;;;;;;;12.37;73.76;99878.22;5028349;28;20426;-81
2022/10/11 11:16:58;;;;;;;14.67;3.67;;;;;;;12.44;72.89;99861.00;5030799;28;20043;-81
2022/10/11 11:19:26;;;;;;;12.45;4.57;;;;;;;12.54;73.07;99876.47;5047239;28;20079;-80
2022/10/11 11:22:05;;;;;;;21.95;4.50;;;;;;;12.26;73.12;99876.38;5046683;28;20037;-80
2022/10/11 11:24:55;;;;;;;14.98;5.18;;;;;;;12.13;73.06;99877.44;5048028;28;20047;-80
2022/10/11 11:27:29;;;;;;;16.42;4.97;;;;;;;12.27;73.75;99878.84;5036015;28;20037;-81
2022/10/11 11:30:04;;;;;;;16.75;5.13;;;;;;;12.34;73.30;99860.78;5049294;28;20039;-80
2022/10/11 11:32:52;;;;;;;14.32;4.30;;;;;;;11.93;73.80;99861.72;5047540;28;20029;-80
2022/10/11 11:35:37;;;;;;;19.75;4.78;;;;;;;12.12;72.84;99866.97;5050565;28;20028;-80
2022/10/11 11:38:13;;;;;;;13.35;4.45;;;;;;;11.75;73.55;99863.72;5028346;28;20072;-80
2022/10/11 11:40:44;;;;;;;21.35;5.38;;;;;;;11.73;72.82;99842.53;5029934;28;20029;-81
2022/10/11 11:43:32;;;;;;;14.90;4.13;;;;;;;11.83;73.31;99876.72;5054400;28;20461;-79